sensor_id;sensor_type;location;lat;lon;timestamp;P1;durP1;ratioP1;P2;durP2;ratioP2
26261;SDS011;13988;52.446;13.280;2024-03-02T00:02:45;30.88;;;14.30;;
26261;SDS011;13988;52.446;13.280;2024-03-02T00:05:12;29.17;;;15.27;;
26261;SDS011;13988;52.446;13.280;2024-03-02T00:07:42;32.05;;;14.80;;
26261;SDS011;13988;52.446;13.280;2024-03-02T00:10:09;27.30;;;13.50;;
26261;SDS011;13988;52.446;13.280;2024-03-02T00:12:37;25.27;;;13.38;;
26261;SDS011;13988;52.446;13.280;2024-03-02T00:15:07;29.23;;;14.07;;
26261;SDS011;13988;52.446;13.280;2024-03-02T00:17:43;25.45;;;14.15;;
26261;SDS011;13988;52.446;13.280;2024-03-02T00:20:18;29.13;;;13.75;;
26261;SDS011;13988;52.446;13.280;2024-03-02T00:22:52;31.45;;;15.02;;
26261;SDS011;13988;52.446;13.280;2024-03-02T00:25:24;27.95;;;13.57;;
26261;SDS011;13988;52.446;13.280;2024-03-02T00:27:50;40.40;;;14.43;;
26261;SDS011;13988;52.446;13.280;2024-03-02T00:30:40;28.70;;;14.48;;
26261;SDS011;13988;52.446;13.280;2024-03-02T00:33:19;33.00;;;14.88;;
26261;SDS011;13988;52.446;13.280;2024-03-02T00:35:46;32.95;;;14.57;;
26261;SDS011;13988;52.446;13.280;2024-03-02T00:38:12;26.30;;;13.30;;
26261;SDS011;13988;52.446;13.280;2024-03-02T00:40:40;27.58;;;14.38;;
26261;SDS011;13988;52.446;13.280;2024-03-02T00:43:09;24.85;;;13.00;;
26261;SDS011;13988;52.446;13.280;2024-03-02T00:46:06;29.25;;;14.75;;
26261;SDS011;13988;52.446;13.280;2024-03-02T00:48:32;21.38;;;12.95;;
26261;SDS011;13988;52.446;13.280;2024-03-02T00:51:01;28.02;;;14.05;;
26261;SDS011;13988;52.446;13.280;2024-03-02T00:53:28;27.85;;;13.18;;
26261;SDS011;13988;52.446;13.280;2024-03-02T00:55:55;26.90;;;13.30;;
26261;SDS011;13988;52.446;13.280;2024-03-02T00:58:21;24.45;;;13.95;;
26261;SDS011;13988;52.446;13.280;2024-03-02T01:00:46;27.58;;;14.07;;
26261;SDS011;13988;52.446;13.280;2024-03-02T01:03:12;24.98;;;13.75;;
26261;SDS011;13988;52.446;13.280;2024-03-02T01:05:41;26.95;;;13.63;;
26261;SDS011;13988;52.446;13.280;2024-03-02T01:08:08;27.83;;;14.38;;
26261;SDS011;13988;52.446;13.280;2024-03-02T01:10:34;27.20;;;14.18;;
26261;SDS011;13988;52.446;13.280;2024-03-02T01:13:00;23.13;;;13.05;;
26261;SDS011;13988;52.446;13.280;2024-03-02T01:15:25;31.08;;;14.82;;
26261;SDS011;13988;52.446;13.280;2024-03-02T01:17:51;27.05;;;14.73;;
26261;SDS011;13988;52.446;13.280;2024-03-02T01:20:17;32.25;;;13.90;;
26261;SDS011;13988;52.446;13.280;2024-03-02T01:22:42;32.28;;;15.18;;
26261;SDS011;13988;52.446;13.280;2024-03-02T01:25:08;31.30;;;13.55;;
26261;SDS011;13988;52.446;13.280;2024-03-02T01:27:34;25.02;;;14.18;;
26261;SDS011;13988;52.446;13.280;2024-03-02T01:30:00;30.65;;;13.98;;
26261;SDS011;13988;52.446;13.280;2024-03-02T01:32:25;25.15;;;13.15;;
26261;SDS011;13988;52.446;13.280;2024-03-02T01:34:51;30.42;;;14.70;;
26261;SDS011;13988;52.446;13.280;2024-03-02T01:37:17;33.67;;;14.40;;
26261;SDS011;13988;52.446;13.280;2024-03-02T01:39:43;27.85;;;14.63;;
26261;SDS011;13988;52.446;13.280;2024-03-02T01:42:08;32.58;;;15.27;;
26261;SDS011;13988;52.446;13.280;2024-03-02T01:44:35;21.92;;;12.40;;
26261;SDS011;13988;52.446;13.280;2024-03-02T01:47:01;29.48;;;13.45;;
26261;SDS011;13988;52.446;13.280;2024-03-02T01:49:27;32.03;;;14.60;;
26261;SDS011;13988;52.446;13.280;2024-03-02T01:51:53;30.40;;;15.25;;
26261;SDS011;13988;52.446;13.280;2024-03-02T01:54:18;33.70;;;17.17;;
26261;SDS011;13988;52.446;13.280;2024-03-02T01:56:44;39.03;;;17.15;;
26261;SDS011;13988;52.446;13.280;2024-03-02T01:59:10;33.50;;;15.23;;
26261;SDS011;13988;52.446;13.280;2024-03-02T02:01:36;34.92;;;16.75;;
26261;SDS011;13988;52.446;13.280;2024-03-02T02:04:01;34.53;;;16.70;;
26261;SDS011;13988;52.446;13.280;2024-03-02T02:06:27;35.55;;;15.73;;
26261;SDS011;13988;52.446;13.280;2024-03-02T02:08:53;35.95;;;17.90;;
26261;SDS011;13988;52.446;13.280;2024-03-02T02:11:18;38.45;;;18.10;;
26261;SDS011;13988;52.446;13.280;2024-03-02T02:13:44;38.40;;;17.52;;
26261;SDS011;13988;52.446;13.280;2024-03-02T02:16:10;47.80;;;21.13;;
26261;SDS011;13988;52.446;13.280;2024-03-02T02:18:35;33.53;;;18.02;;
26261;SDS011;13988;52.446;13.280;2024-03-02T02:21:02;35.88;;;18.90;;
26261;SDS011;13988;52.446;13.280;2024-03-02T02:23:28;36.55;;;18.52;;
26261;SDS011;13988;52.446;13.280;2024-03-02T02:25:54;34.17;;;19.13;;
26261;SDS011;13988;52.446;13.280;2024-03-02T02:28:19;35.92;;;18.42;;
26261;SDS011;13988;52.446;13.280;2024-03-02T02:30:45;38.75;;;19.13;;
26261;SDS011;13988;52.446;13.280;2024-03-02T02:33:11;37.95;;;18.35;;
26261;SDS011;13988;52.446;13.280;2024-03-02T02:35:36;36.58;;;18.92;;
26261;SDS011;13988;52.446;13.280;2024-03-02T02:38:02;42.70;;;18.73;;
26261;SDS011;13988;52.446;13.280;2024-03-02T02:40:29;39.70;;;19.90;;
26261;SDS011;13988;52.446;13.280;2024-03-02T02:42:56;49.35;;;23.80;;
26261;SDS011;13988;52.446;13.280;2024-03-02T02:45:26;40.88;;;21.83;;
26261;SDS011;13988;52.446;13.280;2024-03-02T02:47:52;46.58;;;21.90;;
26261;SDS011;13988;52.446;13.280;2024-03-02T02:50:18;41.83;;;21.40;;
26261;SDS011;13988;52.446;13.280;2024-03-02T02:52:43;48.75;;;21.40;;
26261;SDS011;13988;52.446;13.280;2024-03-02T02:55:10;49.75;;;22.48;;
26261;SDS011;13988;52.446;13.280;2024-03-02T02:57:38;46.45;;;20.63;;
26261;SDS011;13988;52.446;13.280;2024-03-02T03:00:06;37.42;;;18.92;;
26261;SDS011;13988;52.446;13.280;2024-03-02T03:02:40;43.20;;;21.73;;
26261;SDS011;13988;52.446;13.280;2024-03-02T03:05:07;43.38;;;20.45;;
26261;SDS011;13988;52.446;13.280;2024-03-02T03:07:36;43.55;;;22.65;;
26261;SDS011;13988;52.446;13.280;2024-03-02T03:10:04;40.92;;;21.25;;
26261;SDS011;13988;52.446;13.280;2024-03-02T03:12:31;41.22;;;20.38;;
26261;SDS011;13988;52.446;13.280;2024-03-02T03:14:57;42.63;;;21.23;;
26261;SDS011;13988;52.446;13.280;2024-03-02T03:17:23;44.58;;;19.88;;
26261;SDS011;13988;52.446;13.280;2024-03-02T03:19:49;41.42;;;18.80;;
26261;SDS011;13988;52.446;13.280;2024-03-02T03:22:15;39.53;;;21.02;;
26261;SDS011;13988;52.446;13.280;2024-03-02T03:24:41;40.03;;;19.40;;
26261;SDS011;13988;52.446;13.280;2024-03-02T03:27:07;46.40;;;21.25;;
26261;SDS011;13988;52.446;13.280;2024-03-02T03:29:33;41.72;;;20.63;;
26261;SDS011;13988;52.446;13.280;2024-03-02T03:31:58;39.10;;;20.10;;
26261;SDS011;13988;52.446;13.280;2024-03-02T03:34:24;48.20;;;21.35;;
26261;SDS011;13988;52.446;13.280;2024-03-02T03:36:49;38.47;;;19.38;;
26261;SDS011;13988;52.446;13.280;2024-03-02T03:39:15;44.80;;;20.13;;
26261;SDS011;13988;52.446;13.280;2024-03-02T03:41:41;40.88;;;21.13;;
26261;SDS011;13988;52.446;13.280;2024-03-02T03:44:06;34.83;;;19.45;;
26261;SDS011;13988;52.446;13.280;2024-03-02T03:46:32;41.67;;;19.10;;
26261;SDS011;13988;52.446;13.280;2024-03-02T03:48:57;35.88;;;20.30;;
26261;SDS011;13988;52.446;13.280;2024-03-02T03:51:23;39.90;;;20.60;;
26261;SDS011;13988;52.446;13.280;2024-03-02T03:53:49;40.20;;;19.98;;
26261;SDS011;13988;52.446;13.280;2024-03-02T03:56:15;36.67;;;19.75;;
26261;SDS011;13988;52.446;13.280;2024-03-02T03:58:40;41.92;;;20.25;;
26261;SDS011;13988;52.446;13.280;2024-03-02T04:01:06;34.50;;;18.25;;
26261;SDS011;13988;52.446;13.280;2024-03-02T04:03:32;33.65;;;18.15;;
26261;SDS011;13988;52.446;13.280;2024-03-02T04:05:58;38.83;;;18.23;;
26261;SDS011;13988;52.446;13.280;2024-03-02T04:08:23;49.35;;;19.70;;
26261;SDS011;13988;52.446;13.280;2024-03-02T04:10:49;37.17;;;19.58;;
26261;SDS011;13988;52.446;13.280;2024-03-02T04:13:15;38.50;;;19.02;;
26261;SDS011;13988;52.446;13.280;2024-03-02T04:15:40;37.75;;;19.55;;
26261;SDS011;13988;52.446;13.280;2024-03-02T04:18:06;42.13;;;20.27;;
26261;SDS011;13988;52.446;13.280;2024-03-02T04:20:32;38.20;;;17.58;;
26261;SDS011;13988;52.446;13.280;2024-03-02T04:22:57;37.13;;;18.02;;
26261;SDS011;13988;52.446;13.280;2024-03-02T04:25:23;34.30;;;16.95;;
26261;SDS011;13988;52.446;13.280;2024-03-02T04:27:49;38.53;;;20.20;;
26261;SDS011;13988;52.446;13.280;2024-03-02T04:30:14;34.13;;;16.90;;
26261;SDS011;13988;52.446;13.280;2024-03-02T04:32:40;38.63;;;19.02;;
26261;SDS011;13988;52.446;13.280;2024-03-02T04:35:06;40.33;;;18.90;;
26261;SDS011;13988;52.446;13.280;2024-03-02T04:37:35;38.42;;;19.52;;
26261;SDS011;13988;52.446;13.280;2024-03-02T04:40:00;45.20;;;20.63;;
26261;SDS011;13988;52.446;13.280;2024-03-02T04:42:26;40.40;;;20.67;;
26261;SDS011;13988;52.446;13.280;2024-03-02T04:44:52;39.65;;;19.55;;
26261;SDS011;13988;52.446;13.280;2024-03-02T04:47:17;33.58;;;17.23;;
26261;SDS011;13988;52.446;13.280;2024-03-02T04:49:43;40.20;;;19.95;;
26261;SDS011;13988;52.446;13.280;2024-03-02T04:52:08;38.00;;;19.83;;
26261;SDS011;13988;52.446;13.280;2024-03-02T04:54:34;37.17;;;18.65;;
26261;SDS011;13988;52.446;13.280;2024-03-02T04:57:23;37.20;;;18.77;;
26261;SDS011;13988;52.446;13.280;2024-03-02T04:59:48;45.10;;;20.20;;
26261;SDS011;13988;52.446;13.280;2024-03-02T05:02:14;36.47;;;18.55;;
26261;SDS011;13988;52.446;13.280;2024-03-02T05:04:40;39.65;;;19.77;;
26261;SDS011;13988;52.446;13.280;2024-03-02T05:07:06;32.70;;;17.90;;
26261;SDS011;13988;52.446;13.280;2024-03-02T05:09:32;38.60;;;21.13;;
26261;SDS011;13988;52.446;13.280;2024-03-02T05:11:58;36.03;;;18.83;;
26261;SDS011;13988;52.446;13.280;2024-03-02T05:14:36;36.85;;;17.85;;
26261;SDS011;13988;52.446;13.280;2024-03-02T05:17:02;35.45;;;18.35;;
26261;SDS011;13988;52.446;13.280;2024-03-02T05:19:28;32.50;;;18.63;;
26261;SDS011;13988;52.446;13.280;2024-03-02T05:21:53;42.08;;;19.20;;
26261;SDS011;13988;52.446;13.280;2024-03-02T05:24:19;40.60;;;17.83;;
26261;SDS011;13988;52.446;13.280;2024-03-02T05:26:45;37.20;;;18.73;;
26261;SDS011;13988;52.446;13.280;2024-03-02T05:29:10;35.13;;;17.33;;
26261;SDS011;13988;52.446;13.280;2024-03-02T05:31:36;37.38;;;18.73;;
26261;SDS011;13988;52.446;13.280;2024-03-02T05:34:02;44.53;;;20.77;;
26261;SDS011;13988;52.446;13.280;2024-03-02T05:36:27;37.20;;;19.90;;
26261;SDS011;13988;52.446;13.280;2024-03-02T05:38:53;37.28;;;18.17;;
26261;SDS011;13988;52.446;13.280;2024-03-02T05:41:18;44.28;;;19.70;;
26261;SDS011;13988;52.446;13.280;2024-03-02T05:43:44;33.33;;;17.58;;
26261;SDS011;13988;52.446;13.280;2024-03-02T05:46:10;42.38;;;19.90;;
26261;SDS011;13988;52.446;13.280;2024-03-02T05:48:35;35.53;;;17.65;;
26261;SDS011;13988;52.446;13.280;2024-03-02T05:51:01;39.33;;;18.92;;
26261;SDS011;13988;52.446;13.280;2024-03-02T05:53:27;39.42;;;20.05;;
26261;SDS011;13988;52.446;13.280;2024-03-02T05:55:52;42.70;;;19.63;;
26261;SDS011;13988;52.446;13.280;2024-03-02T05:58:20;37.28;;;18.08;;
26261;SDS011;13988;52.446;13.280;2024-03-02T06:00:53;35.25;;;17.02;;
26261;SDS011;13988;52.446;13.280;2024-03-02T06:03:19;39.88;;;19.88;;
26261;SDS011;13988;52.446;13.280;2024-03-02T06:05:45;38.03;;;18.15;;
26261;SDS011;13988;52.446;13.280;2024-03-02T06:08:10;40.00;;;19.65;;
26261;SDS011;13988;52.446;13.280;2024-03-02T06:10:36;37.10;;;19.58;;
26261;SDS011;13988;52.446;13.280;2024-03-02T06:13:02;42.42;;;19.15;;
26261;SDS011;13988;52.446;13.280;2024-03-02T06:15:27;39.60;;;19.20;;
26261;SDS011;13988;52.446;13.280;2024-03-02T06:17:53;35.20;;;19.38;;
26261;SDS011;13988;52.446;13.280;2024-03-02T06:20:18;35.50;;;17.98;;
26261;SDS011;13988;52.446;13.280;2024-03-02T06:22:44;41.75;;;18.65;;
26261;SDS011;13988;52.446;13.280;2024-03-02T06:25:10;43.58;;;19.90;;
26261;SDS011;13988;52.446;13.280;2024-03-02T06:27:35;35.03;;;19.20;;
26261;SDS011;13988;52.446;13.280;2024-03-02T06:30:01;43.30;;;20.13;;
26261;SDS011;13988;52.446;13.280;2024-03-02T06:32:28;35.25;;;19.52;;
26261;SDS011;13988;52.446;13.280;2024-03-02T06:34:54;42.65;;;19.38;;
26261;SDS011;13988;52.446;13.280;2024-03-02T06:37:20;39.08;;;19.55;;
26261;SDS011;13988;52.446;13.280;2024-03-02T06:39:45;37.80;;;19.58;;
26261;SDS011;13988;52.446;13.280;2024-03-02T06:42:11;46.22;;;19.50;;
26261;SDS011;13988;52.446;13.280;2024-03-02T06:44:37;42.55;;;19.60;;
26261;SDS011;13988;52.446;13.280;2024-03-02T06:47:02;39.85;;;18.90;;
26261;SDS011;13988;52.446;13.280;2024-03-02T06:49:29;34.15;;;17.88;;
26261;SDS011;13988;52.446;13.280;2024-03-02T06:51:54;40.25;;;19.05;;
26261;SDS011;13988;52.446;13.280;2024-03-02T06:54:20;38.53;;;18.10;;
26261;SDS011;13988;52.446;13.280;2024-03-02T06:56:46;39.88;;;21.02;;
26261;SDS011;13988;52.446;13.280;2024-03-02T06:59:12;43.78;;;18.38;;
26261;SDS011;13988;52.446;13.280;2024-03-02T07:01:37;43.28;;;19.00;;
26261;SDS011;13988;52.446;13.280;2024-03-02T07:04:03;35.63;;;18.38;;
26261;SDS011;13988;52.446;13.280;2024-03-02T07:06:31;41.92;;;18.77;;
26261;SDS011;13988;52.446;13.280;2024-03-02T07:08:57;36.13;;;18.95;;
26261;SDS011;13988;52.446;13.280;2024-03-02T07:11:22;33.10;;;18.00;;
26261;SDS011;13988;52.446;13.280;2024-03-02T07:13:48;49.90;;;20.13;;
26261;SDS011;13988;52.446;13.280;2024-03-02T07:16:13;46.45;;;20.08;;
26261;SDS011;13988;52.446;13.280;2024-03-02T07:18:57;37.88;;;18.80;;
26261;SDS011;13988;52.446;13.280;2024-03-02T07:21:24;47.45;;;20.80;;
26261;SDS011;13988;52.446;13.280;2024-03-02T07:23:50;42.30;;;19.05;;
26261;SDS011;13988;52.446;13.280;2024-03-02T07:26:16;36.10;;;18.83;;
26261;SDS011;13988;52.446;13.280;2024-03-02T07:28:43;45.88;;;20.70;;
26261;SDS011;13988;52.446;13.280;2024-03-02T07:31:10;37.58;;;18.45;;
26261;SDS011;13988;52.446;13.280;2024-03-02T07:33:35;32.88;;;17.35;;
26261;SDS011;13988;52.446;13.280;2024-03-02T07:36:01;35.65;;;17.95;;
26261;SDS011;13988;52.446;13.280;2024-03-02T07:38:27;35.85;;;18.02;;
26261;SDS011;13988;52.446;13.280;2024-03-02T07:40:53;35.83;;;17.77;;
26261;SDS011;13988;52.446;13.280;2024-03-02T07:43:20;36.13;;;18.38;;
26261;SDS011;13988;52.446;13.280;2024-03-02T07:45:46;45.38;;;20.48;;
26261;SDS011;13988;52.446;13.280;2024-03-02T07:48:12;32.88;;;18.05;;
26261;SDS011;13988;52.446;13.280;2024-03-02T07:50:38;44.78;;;20.67;;
26261;SDS011;13988;52.446;13.280;2024-03-02T07:53:04;37.10;;;19.30;;
26261;SDS011;13988;52.446;13.280;2024-03-02T07:55:30;37.70;;;18.88;;
26261;SDS011;13988;52.446;13.280;2024-03-02T07:57:56;43.28;;;19.30;;
26261;SDS011;13988;52.446;13.280;2024-03-02T08:00:23;36.67;;;18.48;;
26261;SDS011;13988;52.446;13.280;2024-03-02T08:02:48;40.35;;;19.17;;
26261;SDS011;13988;52.446;13.280;2024-03-02T08:05:15;36.13;;;17.38;;
26261;SDS011;13988;52.446;13.280;2024-03-02T08:07:44;39.92;;;19.98;;
26261;SDS011;13988;52.446;13.280;2024-03-02T08:10:10;36.50;;;17.52;;
26261;SDS011;13988;52.446;13.280;2024-03-02T08:12:36;36.83;;;19.83;;
26261;SDS011;13988;52.446;13.280;2024-03-02T08:15:01;35.78;;;18.95;;
26261;SDS011;13988;52.446;13.280;2024-03-02T08:17:27;41.67;;;19.92;;
26261;SDS011;13988;52.446;13.280;2024-03-02T08:19:53;36.13;;;18.65;;
26261;SDS011;13988;52.446;13.280;2024-03-02T08:22:19;33.00;;;18.10;;
26261;SDS011;13988;52.446;13.280;2024-03-02T08:24:45;43.67;;;19.55;;
26261;SDS011;13988;52.446;13.280;2024-03-02T08:27:11;44.17;;;19.42;;
26261;SDS011;13988;52.446;13.280;2024-03-02T08:29:37;34.85;;;17.77;;
26261;SDS011;13988;52.446;13.280;2024-03-02T08:32:03;40.17;;;19.58;;
26261;SDS011;13988;52.446;13.280;2024-03-02T08:34:29;39.00;;;18.05;;
26261;SDS011;13988;52.446;13.280;2024-03-02T08:36:55;42.83;;;19.75;;
26261;SDS011;13988;52.446;13.280;2024-03-02T08:39:21;37.08;;;16.88;;
26261;SDS011;13988;52.446;13.280;2024-03-02T08:41:47;37.50;;;18.58;;
26261;SDS011;13988;52.446;13.280;2024-03-02T08:44:13;33.47;;;17.15;;
26261;SDS011;13988;52.446;13.280;2024-03-02T08:46:39;38.75;;;19.10;;
26261;SDS011;13988;52.446;13.280;2024-03-02T08:49:05;40.92;;;18.50;;
26261;SDS011;13988;52.446;13.280;2024-03-02T08:51:31;41.42;;;18.60;;
26261;SDS011;13988;52.446;13.280;2024-03-02T08:53:57;46.67;;;19.45;;
26261;SDS011;13988;52.446;13.280;2024-03-02T08:56:24;34.58;;;18.23;;
26261;SDS011;13988;52.446;13.280;2024-03-02T08:58:50;39.13;;;17.67;;
26261;SDS011;13988;52.446;13.280;2024-03-02T09:01:17;36.67;;;17.27;;
26261;SDS011;13988;52.446;13.280;2024-03-02T09:03:43;40.30;;;18.85;;
26261;SDS011;13988;52.446;13.280;2024-03-02T09:06:12;36.53;;;18.70;;
26261;SDS011;13988;52.446;13.280;2024-03-02T09:08:38;39.08;;;17.38;;
26261;SDS011;13988;52.446;13.280;2024-03-02T09:11:08;36.38;;;17.42;;
26261;SDS011;13988;52.446;13.280;2024-03-02T09:13:34;41.20;;;18.60;;
26261;SDS011;13988;52.446;13.280;2024-03-02T09:16:00;43.20;;;19.75;;
26261;SDS011;13988;52.446;13.280;2024-03-02T09:18:25;30.45;;;16.42;;
26261;SDS011;13988;52.446;13.280;2024-03-02T09:20:51;36.97;;;18.23;;
26261;SDS011;13988;52.446;13.280;2024-03-02T09:23:17;34.92;;;16.92;;
26261;SDS011;13988;52.446;13.280;2024-03-02T09:25:43;36.42;;;17.88;;
26261;SDS011;13988;52.446;13.280;2024-03-02T09:28:08;37.45;;;17.58;;
26261;SDS011;13988;52.446;13.280;2024-03-02T09:30:34;34.20;;;17.50;;
26261;SDS011;13988;52.446;13.280;2024-03-02T09:33:00;33.83;;;15.32;;
26261;SDS011;13988;52.446;13.280;2024-03-02T09:35:25;32.33;;;16.42;;
26261;SDS011;13988;52.446;13.280;2024-03-02T09:37:51;32.83;;;17.23;;
26261;SDS011;13988;52.446;13.280;2024-03-02T09:40:17;30.67;;;17.42;;
26261;SDS011;13988;52.446;13.280;2024-03-02T09:42:42;41.67;;;18.00;;
26261;SDS011;13988;52.446;13.280;2024-03-02T09:45:10;37.13;;;17.73;;
26261;SDS011;13988;52.446;13.280;2024-03-02T09:47:36;39.78;;;16.02;;
26261;SDS011;13988;52.446;13.280;2024-03-02T09:50:01;38.15;;;17.05;;
26261;SDS011;13988;52.446;13.280;2024-03-02T09:52:28;33.72;;;16.25;;
26261;SDS011;13988;52.446;13.280;2024-03-02T09:54:56;32.75;;;16.83;;
26261;SDS011;13988;52.446;13.280;2024-03-02T09:57:21;29.83;;;15.70;;
26261;SDS011;13988;52.446;13.280;2024-03-02T09:59:47;30.90;;;16.08;;
26261;SDS011;13988;52.446;13.280;2024-03-02T10:02:12;27.98;;;16.10;;
26261;SDS011;13988;52.446;13.280;2024-03-02T10:04:38;32.10;;;15.73;;
26261;SDS011;13988;52.446;13.280;2024-03-02T10:09:39;36.08;;;15.32;;
26261;SDS011;13988;52.446;13.280;2024-03-02T10:12:07;32.47;;;15.73;;
26261;SDS011;13988;52.446;13.280;2024-03-02T10:14:34;27.58;;;14.77;;
26261;SDS011;13988;52.446;13.280;2024-03-02T10:17:06;28.80;;;14.80;;
26261;SDS011;13988;52.446;13.280;2024-03-02T10:19:33;30.50;;;15.25;;
26261;SDS011;13988;52.446;13.280;2024-03-02T10:22:00;28.77;;;14.38;;
26261;SDS011;13988;52.446;13.280;2024-03-02T10:24:27;30.08;;;14.15;;
26261;SDS011;13988;52.446;13.280;2024-03-02T10:27:00;30.90;;;13.82;;
26261;SDS011;13988;52.446;13.280;2024-03-02T10:29:27;27.80;;;14.98;;
26261;SDS011;13988;52.446;13.280;2024-03-02T10:31:54;27.17;;;13.85;;
26261;SDS011;13988;52.446;13.280;2024-03-02T10:34:21;29.17;;;15.85;;
26261;SDS011;13988;52.446;13.280;2024-03-02T10:36:47;24.55;;;14.30;;
26261;SDS011;13988;52.446;13.280;2024-03-02T10:39:13;34.83;;;15.65;;
26261;SDS011;13988;52.446;13.280;2024-03-02T10:41:39;24.90;;;15.57;;
26261;SDS011;13988;52.446;13.280;2024-03-02T10:44:06;23.48;;;13.30;;
26261;SDS011;13988;52.446;13.280;2024-03-02T10:46:33;30.17;;;14.15;;
26261;SDS011;13988;52.446;13.280;2024-03-02T10:49:01;30.63;;;14.60;;
26261;SDS011;13988;52.446;13.280;2024-03-02T10:51:29;26.05;;;14.02;;
26261;SDS011;13988;52.446;13.280;2024-03-02T10:54:01;30.20;;;13.77;;
26261;SDS011;13988;52.446;13.280;2024-03-02T10:56:29;28.27;;;13.18;;
26261;SDS011;13988;52.446;13.280;2024-03-02T10:58:55;27.08;;;13.50;;
26261;SDS011;13988;52.446;13.280;2024-03-02T11:01:28;26.13;;;12.93;;
26261;SDS011;13988;52.446;13.280;2024-03-02T11:03:55;22.52;;;13.10;;
26261;SDS011;13988;52.446;13.280;2024-03-02T11:06:22;26.55;;;12.48;;
26261;SDS011;13988;52.446;13.280;2024-03-02T11:08:49;23.88;;;13.18;;
26261;SDS011;13988;52.446;13.280;2024-03-02T11:11:21;21.70;;;12.40;;
26261;SDS011;13988;52.446;13.280;2024-03-02T11:13:50;26.17;;;13.35;;
26261;SDS011;13988;52.446;13.280;2024-03-02T11:18:57;24.92;;;13.35;;
26261;SDS011;13988;52.446;13.280;2024-03-02T11:21:23;19.88;;;11.32;;
26261;SDS011;13988;52.446;13.280;2024-03-02T11:23:50;27.55;;;12.70;;
26261;SDS011;13988;52.446;13.280;2024-03-02T11:28:50;25.38;;;13.00;;
26261;SDS011;13988;52.446;13.280;2024-03-02T11:31:16;28.27;;;13.23;;
26261;SDS011;13988;52.446;13.280;2024-03-02T11:33:42;26.48;;;13.05;;
26261;SDS011;13988;52.446;13.280;2024-03-02T11:36:08;28.20;;;13.57;;
26261;SDS011;13988;52.446;13.280;2024-03-02T11:38:34;19.75;;;11.70;;
26261;SDS011;13988;52.446;13.280;2024-03-02T11:41:01;29.80;;;14.07;;
26261;SDS011;13988;52.446;13.280;2024-03-02T11:43:28;23.05;;;12.80;;
26261;SDS011;13988;52.446;13.280;2024-03-02T11:45:58;23.50;;;12.70;;
26261;SDS011;13988;52.446;13.280;2024-03-02T11:48:31;24.98;;;11.98;;
26261;SDS011;13988;52.446;13.280;2024-03-02T11:50:59;23.40;;;12.80;;
26261;SDS011;13988;52.446;13.280;2024-03-02T11:53:26;20.55;;;11.02;;
26261;SDS011;13988;52.446;13.280;2024-03-02T11:55:55;23.38;;;12.38;;
26261;SDS011;13988;52.446;13.280;2024-03-02T11:58:20;22.52;;;12.75;;
26261;SDS011;13988;52.446;13.280;2024-03-02T12:00:55;23.85;;;11.32;;
26261;SDS011;13988;52.446;13.280;2024-03-02T12:03:24;24.98;;;13.27;;
26261;SDS011;13988;52.446;13.280;2024-03-02T12:05:51;26.80;;;12.02;;
26261;SDS011;13988;52.446;13.280;2024-03-02T12:08:18;21.50;;;12.18;;
26261;SDS011;13988;52.446;13.280;2024-03-02T12:10:55;23.45;;;12.82;;
26261;SDS011;13988;52.446;13.280;2024-03-02T12:13:22;22.38;;;12.48;;
26261;SDS011;13988;52.446;13.280;2024-03-02T12:15:48;22.63;;;12.85;;
26261;SDS011;13988;52.446;13.280;2024-03-02T12:18:19;19.65;;;11.25;;
26261;SDS011;13988;52.446;13.280;2024-03-02T12:20:45;23.98;;;11.80;;
26261;SDS011;13988;52.446;13.280;2024-03-02T12:23:10;23.00;;;11.80;;
26261;SDS011;13988;52.446;13.280;2024-03-02T12:25:36;23.60;;;12.18;;
26261;SDS011;13988;52.446;13.280;2024-03-02T12:28:02;20.00;;;11.18;;
26261;SDS011;13988;52.446;13.280;2024-03-02T12:30:29;23.40;;;12.00;;
26261;SDS011;13988;52.446;13.280;2024-03-02T12:32:56;22.90;;;12.20;;
26261;SDS011;13988;52.446;13.280;2024-03-02T12:35:22;21.75;;;12.20;;
26261;SDS011;13988;52.446;13.280;2024-03-02T12:37:50;22.48;;;10.80;;
26261;SDS011;13988;52.446;13.280;2024-03-02T12:40:17;20.50;;;11.00;;
26261;SDS011;13988;52.446;13.280;2024-03-02T12:42:44;23.67;;;11.80;;
26261;SDS011;13988;52.446;13.280;2024-03-02T12:45:11;18.05;;;10.60;;
26261;SDS011;13988;52.446;13.280;2024-03-02T12:47:37;18.67;;;10.02;;
26261;SDS011;13988;52.446;13.280;2024-03-02T12:50:05;22.25;;;11.57;;
26261;SDS011;13988;52.446;13.280;2024-03-02T12:52:31;20.77;;;10.25;;
26261;SDS011;13988;52.446;13.280;2024-03-02T12:55:00;16.58;;;9.68;;
26261;SDS011;13988;52.446;13.280;2024-03-02T12:57:28;21.08;;;12.45;;
26261;SDS011;13988;52.446;13.280;2024-03-02T12:59:59;18.65;;;11.65;;
26261;SDS011;13988;52.446;13.280;2024-03-02T13:02:28;17.52;;;10.65;;
26261;SDS011;13988;52.446;13.280;2024-03-02T13:04:55;27.50;;;10.98;;
26261;SDS011;13988;52.446;13.280;2024-03-02T13:07:25;20.02;;;10.05;;
26261;SDS011;13988;52.446;13.280;2024-03-02T13:09:52;19.77;;;10.73;;
26261;SDS011;13988;52.446;13.280;2024-03-02T13:12:20;22.48;;;10.60;;
26261;SDS011;13988;52.446;13.280;2024-03-02T13:14:53;19.50;;;10.48;;
26261;SDS011;13988;52.446;13.280;2024-03-02T13:17:19;19.83;;;10.32;;
26261;SDS011;13988;52.446;13.280;2024-03-02T13:20:18;21.35;;;11.98;;
26261;SDS011;13988;52.446;13.280;2024-03-02T13:22:39;15.65;;;9.80;;
26261;SDS011;13988;52.446;13.280;2024-03-02T13:25:04;17.13;;;10.30;;
26261;SDS011;13988;52.446;13.280;2024-03-02T13:27:30;22.58;;;10.70;;
26261;SDS011;13988;52.446;13.280;2024-03-02T13:29:57;18.55;;;9.55;;
26261;SDS011;13988;52.446;13.280;2024-03-02T13:32:23;22.02;;;11.05;;
26261;SDS011;13988;52.446;13.280;2024-03-02T13:34:50;23.88;;;10.98;;
26261;SDS011;13988;52.446;13.280;2024-03-02T13:37:16;22.23;;;10.70;;
26261;SDS011;13988;52.446;13.280;2024-03-02T13:39:42;16.23;;;9.27;;
26261;SDS011;13988;52.446;13.280;2024-03-02T13:42:11;20.13;;;10.70;;
26261;SDS011;13988;52.446;13.280;2024-03-02T13:44:38;18.85;;;10.25;;
26261;SDS011;13988;52.446;13.280;2024-03-02T13:47:04;18.67;;;9.65;;
26261;SDS011;13988;52.446;13.280;2024-03-02T13:49:31;20.60;;;9.05;;
26261;SDS011;13988;52.446;13.280;2024-03-02T13:52:03;17.45;;;10.35;;
26261;SDS011;13988;52.446;13.280;2024-03-02T13:54:38;16.83;;;10.05;;
26261;SDS011;13988;52.446;13.280;2024-03-02T13:57:07;15.55;;;9.82;;
26261;SDS011;13988;52.446;13.280;2024-03-02T13:59:33;18.38;;;9.88;;
26261;SDS011;13988;52.446;13.280;2024-03-02T14:02:00;20.23;;;9.55;;
26261;SDS011;13988;52.446;13.280;2024-03-02T14:04:27;17.67;;;9.60;;
26261;SDS011;13988;52.446;13.280;2024-03-02T14:06:52;18.40;;;9.20;;
26261;SDS011;13988;52.446;13.280;2024-03-02T14:09:18;16.70;;;8.55;;
26261;SDS011;13988;52.446;13.280;2024-03-02T14:11:45;13.65;;;8.52;;
26261;SDS011;13988;52.446;13.280;2024-03-02T14:14:11;20.70;;;9.05;;
26261;SDS011;13988;52.446;13.280;2024-03-02T14:16:37;13.95;;;9.18;;